createdAt,value
2022-10-03T00:00:16.682Z,14
2022-10-03T00:01:16.878Z,20
2022-10-03T00:02:16.792Z,12
2022-10-03T00:03:16.850Z,15
2022-10-03T00:04:16.716Z,18
2022-10-03T00:05:16.712Z,19
2022-10-03T00:06:16.712Z,20
2022-10-03T00:07:16.726Z,18
2022-10-03T00:08:16.727Z,20
2022-10-03T00:09:16.731Z,20
2022-10-03T00:10:16.748Z,18
2022-10-03T00:11:16.768Z,19
2022-10-03T00:12:16.681Z,22
2022-10-03T00:13:16.756Z,26
2022-10-03T00:14:16.816Z,22
2022-10-03T00:15:16.776Z,18
2022-10-03T00:16:16.749Z,24
2022-10-03T00:17:16.800Z,21
2022-10-03T00:18:16.797Z,22
2022-10-03T00:19:16.720Z,24
2022-10-03T00:20:16.707Z,22
2022-10-03T00:21:16.712Z,23
2022-10-03T00:22:16.661Z,21
2022-10-03T00:23:16.724Z,27
2022-10-03T00:24:16.707Z,22
2022-10-03T00:25:16.744Z,25
2022-10-03T00:26:16.918Z,26
2022-10-03T00:27:16.748Z,30
2022-10-03T00:28:16.864Z,24
2022-10-03T00:29:16.780Z,21
2022-10-03T00:30:16.770Z,29
2022-10-03T00:31:16.849Z,27
2022-10-03T00:32:16.781Z,27
2022-10-03T00:33:16.788Z,23
2022-10-03T00:34:16.706Z,30
2022-10-03T00:35:16.712Z,24
2022-10-03T00:36:16.714Z,33
2022-10-03T00:37:16.718Z,28
2022-10-03T00:38:16.673Z,28
2022-10-03T00:39:16.752Z,26
2022-10-03T00:40:16.827Z,29
2022-10-03T00:41:16.755Z,27
2022-10-03T00:42:16.742Z,29
2022-10-03T00:43:16.758Z,27
2022-10-03T00:44:16.777Z,23
2022-10-03T00:45:16.764Z,30
2022-10-03T00:46:16.891Z,31
2022-10-03T00:47:16.683Z,30
2022-10-03T00:48:16.725Z,30
2022-10-03T00:49:16.794Z,37
2022-10-03T00:50:16.681Z,32
2022-10-03T00:51:16.690Z,28
2022-10-03T00:52:16.672Z,29
2022-10-03T00:53:16.721Z,26
2022-10-03T00:54:16.977Z,29
2022-10-03T00:55:17.053Z,31
2022-10-03T00:56:17.080Z,32
2022-10-03T00:57:17.114Z,28
2022-10-03T00:58:16.667Z,33
2022-10-03T00:59:16.700Z,29
2022-10-03T01:00:16.709Z,31
2022-10-03T01:01:16.742Z,36
2022-10-03T01:02:16.716Z,26
2022-10-03T01:03:16.678Z,27
2022-10-03T01:04:16.728Z,32
2022-10-03T01:05:16.687Z,34
2022-10-03T01:06:16.660Z,27
2022-10-03T01:07:16.656Z,26
2022-10-03T01:08:16.686Z,29
2022-10-03T01:09:16.677Z,32
2022-10-03T01:10:16.658Z,27
2022-10-03T01:11:16.742Z,26
2022-10-03T01:12:16.700Z,33
2022-10-03T01:13:16.675Z,35
2022-10-03T01:14:16.786Z,30
2022-10-03T01:15:16.660Z,29
2022-10-03T01:16:16.739Z,29
2022-10-03T01:17:16.765Z,27
2022-10-03T01:18:16.659Z,36
2022-10-03T01:19:16.726Z,30
2022-10-03T01:20:16.700Z,30
2022-10-03T01:21:16.739Z,34
2022-10-03T01:22:16.824Z,28
2022-10-03T01:23:16.676Z,31
2022-10-03T01:24:16.726Z,32
2022-10-03T01:25:16.712Z,30
2022-10-03T01:26:16.764Z,34
2022-10-03T01:27:16.741Z,27
2022-10-03T01:28:17.050Z,25
2022-10-03T01:29:17.003Z,30
2022-10-03T01:30:16.656Z,27
2022-10-03T01:31:16.752Z,33
2022-10-03T01:32:16.667Z,33
2022-10-03T01:33:16.667Z,31
2022-10-03T01:34:16.688Z,27
2022-10-03T01:35:16.717Z,28
2022-10-03T01:36:16.667Z,36
2022-10-03T01:37:16.660Z,32
2022-10-03T01:38:16.674Z,27
2022-10-03T01:39:16.673Z,28
2022-10-03T01:40:16.683Z,29
2022-10-03T01:41:16.670Z,27
2022-10-03T01:42:16.727Z,27
2022-10-03T01:43:16.711Z,24
2022-10-03T01:44:16.699Z,31
2022-10-03T01:45:16.724Z,29
2022-10-03T01:46:16.742Z,29
2022-10-03T01:47:16.663Z,30
2022-10-03T01:48:16.665Z,29
2022-10-03T01:49:16.683Z,32
2022-10-03T01:50:16.723Z,36
2022-10-03T01:51:16.725Z,31
2022-10-03T01:52:16.665Z,29
2022-10-03T01:53:16.673Z,27
2022-10-03T01:54:16.691Z,28
2022-10-03T01:55:16.666Z,30
2022-10-03T01:56:16.738Z,27
2022-10-03T01:57:16.730Z,27
2022-10-03T01:58:16.849Z,35
2022-10-03T01:59:16.811Z,34
2022-10-03T02:00:16.719Z,25
2022-10-03T02:01:16.779Z,21
2022-10-03T02:02:16.789Z,31
2022-10-03T02:03:16.754Z,29
2022-10-03T02:04:16.779Z,32
2022-10-03T02:05:16.677Z,29
2022-10-03T02:06:16.729Z,32
2022-10-03T02:07:16.680Z,40
2022-10-03T02:08:16.682Z,32
2022-10-03T02:09:16.801Z,33
2022-10-03T02:10:16.792Z,31
2022-10-03T02:11:16.728Z,29
2022-10-03T02:12:16.727Z,33
2022-10-03T02:13:16.809Z,34
2022-10-03T02:14:16.833Z,36
2022-10-03T02:15:16.740Z,31
2022-10-03T02:16:16.851Z,33
2022-10-03T02:17:16.674Z,34
2022-10-03T02:18:16.738Z,34
2022-10-03T02:19:16.782Z,32
2022-10-03T02:20:16.687Z,33
2022-10-03T02:21:16.759Z,35
2022-10-03T02:22:16.743Z,42
2022-10-03T02:23:16.779Z,33
2022-10-03T02:24:16.805Z,37
2022-10-03T02:25:16.684Z,37
2022-10-03T02:26:16.737Z,38
2022-10-03T02:27:16.705Z,40
2022-10-03T02:28:16.772Z,36
2022-10-03T02:29:16.847Z,34
2022-10-03T02:30:16.702Z,35
2022-10-03T02:31:16.760Z,41
2022-10-03T02:32:16.728Z,32
2022-10-03T02:33:16.695Z,40
2022-10-03T02:34:16.760Z,35
2022-10-03T02:35:16.757Z,38
2022-10-03T02:36:16.750Z,32
2022-10-03T02:37:16.775Z,39
2022-10-03T02:38:16.768Z,35
2022-10-03T02:39:16.792Z,32
2022-10-03T02:40:16.781Z,34
2022-10-03T02:41:16.777Z,41
2022-10-03T02:42:16.708Z,38
2022-10-03T02:43:16.674Z,39
2022-10-03T02:44:16.735Z,32
2022-10-03T02:45:16.818Z,41
2022-10-03T02:46:16.680Z,32
2022-10-03T02:47:16.733Z,31
2022-10-03T02:48:31.393Z,42
2022-10-03T02:49:16.762Z,31
2022-10-03T02:50:16.684Z,34
2022-10-03T02:51:16.750Z,37
2022-10-03T02:52:16.763Z,35
2022-10-03T02:53:16.764Z,34
2022-10-03T02:54:16.687Z,32
2022-10-03T02:55:16.780Z,43
2022-10-03T02:56:16.784Z,33
2022-10-03T02:57:16.703Z,34
2022-10-03T02:58:16.668Z,35
2022-10-03T02:59:16.703Z,32
2022-10-03T03:00:16.840Z,31
2022-10-03T03:01:16.928Z,29
2022-10-03T03:02:16.797Z,32
2022-10-03T03:03:16.835Z,34
2022-10-03T03:04:16.746Z,43
2022-10-03T03:05:16.672Z,35
2022-10-03T03:06:16.711Z,37
2022-10-03T03:07:16.761Z,40
2022-10-03T03:08:16.780Z,32
2022-10-03T03:09:16.736Z,36
2022-10-03T03:10:16.781Z,32
2022-10-03T03:11:16.682Z,42
2022-10-03T03:12:16.694Z,33
2022-10-03T03:13:16.680Z,34
2022-10-03T03:14:16.707Z,31
2022-10-03T03:15:16.716Z,40
2022-10-03T03:16:16.737Z,36
2022-10-03T03:17:16.810Z,31
2022-10-03T03:18:16.763Z,35
2022-10-03T03:19:16.800Z,31
2022-10-03T03:20:16.731Z,30
2022-10-03T03:21:16.735Z,30
2022-10-03T03:22:16.863Z,31
2022-10-03T03:23:16.822Z,41
2022-10-03T03:24:16.740Z,26
2022-10-03T03:25:16.761Z,40
2022-10-03T03:26:16.766Z,35
2022-10-03T03:27:16.796Z,32
2022-10-03T03:28:16.861Z,32
2022-10-03T03:29:16.699Z,34
2022-10-03T03:30:16.713Z,31
2022-10-03T03:31:16.845Z,33
2022-10-03T03:32:17.177Z,51
2022-10-03T03:33:17.014Z,36
2022-10-03T03:34:17.082Z,33
2022-10-03T03:35:16.673Z,36
2022-10-03T03:36:16.735Z,31
2022-10-03T03:37:16.664Z,34
2022-10-03T03:38:16.747Z,31
2022-10-03T03:39:16.783Z,33
2022-10-03T03:40:16.755Z,29
2022-10-03T03:41:16.758Z,31
2022-10-03T03:42:16.900Z,34
2022-10-03T03:43:16.680Z,37
2022-10-03T03:44:17.118Z,38
2022-10-03T03:45:16.799Z,29
2022-10-03T03:46:16.707Z,30
2022-10-03T03:47:16.818Z,37
2022-10-03T03:48:16.815Z,30
2022-10-03T03:49:16.732Z,30
2022-10-03T03:50:16.718Z,34
2022-10-03T03:51:16.677Z,31
2022-10-03T03:52:16.733Z,32
2022-10-03T03:53:16.739Z,32
2022-10-03T03:54:16.704Z,36
2022-10-03T03:55:16.750Z,43
2022-10-03T03:56:16.762Z,39
2022-10-03T03:57:16.694Z,27
2022-10-03T03:58:16.775Z,25
2022-10-03T03:59:16.800Z,23
2022-10-03T04:00:16.741Z,27
2022-10-03T04:01:16.753Z,28
2022-10-03T04:02:16.847Z,21
2022-10-03T04:03:16.812Z,28
2022-10-03T04:04:16.694Z,22
2022-10-03T04:05:16.702Z,28
2022-10-03T04:06:16.717Z,25
2022-10-03T04:07:20.946Z,31
2022-10-03T04:08:16.671Z,27
2022-10-03T04:09:16.773Z,23
2022-10-03T04:10:16.740Z,30
2022-10-03T04:11:16.708Z,28
2022-10-03T04:12:16.774Z,30
2022-10-03T04:13:16.765Z,29
2022-10-03T04:14:16.782Z,26
2022-10-03T04:15:16.778Z,27
2022-10-03T04:16:16.759Z,32
2022-10-03T04:17:16.696Z,29
2022-10-03T04:18:16.801Z,23
2022-10-03T04:19:16.730Z,29
2022-10-03T04:20:16.713Z,20
2022-10-03T04:21:19.030Z,24
2022-10-03T04:22:16.718Z,20
2022-10-03T04:23:16.717Z,20
2022-10-03T04:24:16.752Z,21
2022-10-03T04:25:16.742Z,25
2022-10-03T04:26:16.760Z,24
2022-10-03T04:27:16.734Z,18
2022-10-03T04:28:16.790Z,24
2022-10-03T04:29:16.789Z,17
2022-10-03T04:30:16.767Z,25
2022-10-03T04:31:16.756Z,23
2022-10-03T04:32:16.872Z,21
2022-10-03T04:33:16.710Z,26
2022-10-03T04:34:16.731Z,32
2022-10-03T04:35:16.802Z,24
2022-10-03T04:36:16.710Z,27
2022-10-03T04:37:16.760Z,26
2022-10-03T04:38:16.841Z,31
2022-10-03T04:39:16.861Z,28
2022-10-03T04:40:16.866Z,26
2022-10-03T04:41:16.775Z,27
2022-10-03T04:42:16.739Z,25
2022-10-03T04:43:16.762Z,29
2022-10-03T04:44:16.697Z,21
2022-10-03T04:45:16.762Z,24
2022-10-03T04:46:16.730Z,25
2022-10-03T04:47:16.783Z,29
2022-10-03T04:48:16.862Z,25
2022-10-03T04:49:16.806Z,20
2022-10-03T04:50:17.159Z,24
2022-10-03T04:51:16.693Z,23
2022-10-03T04:52:16.721Z,24
2022-10-03T04:53:16.713Z,22
2022-10-03T04:54:16.737Z,22
2022-10-03T04:55:16.663Z,24
2022-10-03T04:56:16.678Z,19
2022-10-03T04:57:16.765Z,17
2022-10-03T04:58:16.753Z,28
2022-10-03T04:59:16.789Z,18
2022-10-03T05:00:16.754Z,25
2022-10-03T05:01:16.787Z,30
2022-10-03T05:02:16.807Z,21
2022-10-03T05:03:16.674Z,20
2022-10-03T05:04:16.725Z,23
2022-10-03T05:05:16.734Z,25
2022-10-03T05:06:16.730Z,22
2022-10-03T05:07:16.714Z,30
2022-10-03T05:08:16.723Z,28
2022-10-03T05:09:16.690Z,26
2022-10-03T05:10:16.670Z,24
2022-10-03T05:11:16.720Z,30
2022-10-03T05:12:16.748Z,25
2022-10-03T05:13:16.738Z,22
2022-10-03T05:14:16.783Z,20
2022-10-03T05:15:16.758Z,24
2022-10-03T05:16:16.697Z,20
2022-10-03T05:17:16.772Z,17
2022-10-03T05:18:16.793Z,21
2022-10-03T05:19:16.802Z,18
2022-10-03T05:20:16.791Z,14
2022-10-03T05:21:16.782Z,14
2022-10-03T05:22:16.711Z,25
2022-10-03T05:23:16.700Z,17
2022-10-03T05:24:16.689Z,17
2022-10-03T05:25:16.695Z,20
2022-10-03T05:26:43.526Z,21
2022-10-03T05:27:16.769Z,16
2022-10-03T05:28:16.876Z,24
2022-10-03T05:29:16.729Z,23
2022-10-03T05:30:16.754Z,26
2022-10-03T05:31:16.811Z,27
2022-10-03T05:32:16.762Z,24
2022-10-03T05:33:16.766Z,28
2022-10-03T05:34:16.793Z,25
2022-10-03T05:35:16.810Z,28
2022-10-03T05:36:16.713Z,29
2022-10-03T05:37:16.731Z,22
2022-10-03T05:38:16.691Z,28
2022-10-03T05:39:16.826Z,24
2022-10-03T05:40:16.703Z,27
2022-10-03T05:41:16.711Z,29
2022-10-03T05:42:23.355Z,28
2022-10-03T05:43:16.727Z,25
2022-10-03T05:44:16.762Z,26
2022-10-03T05:45:16.735Z,29
2022-10-03T05:46:16.852Z,25
2022-10-03T05:47:16.755Z,35
2022-10-03T05:48:16.765Z,26
2022-10-03T05:49:16.703Z,28
2022-10-03T05:50:18.397Z,31
2022-10-03T05:51:16.794Z,34
2022-10-03T05:52:16.784Z,32
2022-10-03T05:53:16.715Z,31
2022-10-03T05:54:16.818Z,34
2022-10-03T05:55:16.702Z,26
2022-10-03T05:56:16.715Z,27
2022-10-03T05:57:16.735Z,23
2022-10-03T05:58:16.729Z,30
2022-10-03T05:59:16.761Z,24
2022-10-03T06:00:16.713Z,28
2022-10-03T06:01:16.677Z,26
2022-10-03T06:02:16.923Z,27
2022-10-03T06:03:16.885Z,27
2022-10-03T06:04:16.785Z,25
2022-10-03T06:05:16.694Z,23
2022-10-03T06:06:16.829Z,24
2022-10-03T06:07:16.782Z,23
2022-10-03T06:08:16.788Z,25
2022-10-03T06:09:16.745Z,28
2022-10-03T06:10:16.702Z,26
2022-10-03T06:11:16.708Z,23
2022-10-03T06:12:16.745Z,23
2022-10-03T06:13:16.731Z,26
2022-10-03T06:14:16.726Z,25
2022-10-03T06:15:16.735Z,21
2022-10-03T06:16:16.796Z,31
2022-10-03T06:17:16.756Z,18
2022-10-03T06:18:16.852Z,24
2022-10-03T06:19:16.762Z,28
2022-10-03T06:20:16.766Z,23
2022-10-03T06:21:16.763Z,25
2022-10-03T06:22:16.830Z,29
2022-10-03T06:23:16.780Z,24
2022-10-03T06:24:16.802Z,22
2022-10-03T06:25:16.693Z,23
2022-10-03T06:26:16.694Z,24
2022-10-03T06:27:16.715Z,22
2022-10-03T06:28:16.750Z,26
2022-10-03T06:29:16.836Z,25
2022-10-03T06:30:16.875Z,28
2022-10-03T06:31:16.902Z,22
2022-10-03T06:32:16.782Z,24
2022-10-03T06:33:16.849Z,22
2022-10-03T06:34:16.881Z,24
2022-10-03T06:35:16.683Z,25
2022-10-03T06:36:16.768Z,23
2022-10-03T06:37:16.789Z,35
2022-10-03T06:38:16.782Z,27
2022-10-03T06:39:16.836Z,26
2022-10-03T06:40:16.669Z,19
2022-10-03T06:41:16.686Z,24
2022-10-03T06:42:16.718Z,21
2022-10-03T06:43:16.703Z,24
2022-10-03T06:44:16.687Z,23
2022-10-03T06:45:16.709Z,28
2022-10-03T06:46:16.911Z,25
2022-10-03T06:47:16.746Z,22
2022-10-03T06:48:16.740Z,28
2022-10-03T06:49:16.767Z,22
2022-10-03T06:50:16.760Z,27
2022-10-03T06:51:16.752Z,28
2022-10-03T06:52:16.672Z,27
2022-10-03T06:53:16.760Z,24
2022-10-03T06:54:16.799Z,28
2022-10-03T06:55:16.789Z,27
2022-10-03T06:56:16.678Z,29
2022-10-03T06:57:16.806Z,27
2022-10-03T06:58:16.691Z,27
2022-10-03T06:59:16.683Z,43
2022-10-03T07:00:16.719Z,43
2022-10-03T07:01:16.773Z,43
2022-10-03T07:02:16.815Z,39
2022-10-03T07:03:16.720Z,32
2022-10-03T07:04:16.685Z,32
2022-10-03T07:05:16.694Z,22
2022-10-03T07:06:16.683Z,26
2022-10-03T07:07:16.681Z,36
2022-10-03T07:08:16.712Z,27
2022-10-03T07:09:16.683Z,25
2022-10-03T07:10:16.744Z,27
2022-10-03T07:11:16.763Z,26
2022-10-03T07:12:16.690Z,24
2022-10-03T07:13:16.676Z,28
2022-10-03T07:14:16.800Z,27
2022-10-03T07:15:16.736Z,27
2022-10-03T07:16:32.206Z,26
2022-10-03T07:17:16.756Z,31
2022-10-03T07:18:16.835Z,27
2022-10-03T07:19:16.685Z,33
2022-10-03T07:20:16.776Z,26
2022-10-03T07:21:17.092Z,31
2022-10-03T07:22:16.753Z,27
2022-10-03T07:23:16.665Z,34
2022-10-03T07:24:16.765Z,24
2022-10-03T07:25:16.765Z,28
2022-10-03T07:26:16.890Z,31
2022-10-03T07:27:16.779Z,32
2022-10-03T07:28:16.861Z,31
2022-10-03T07:29:16.698Z,36
2022-10-03T07:30:16.694Z,37
2022-10-03T07:31:16.685Z,38
2022-10-03T07:32:16.687Z,39
2022-10-03T07:33:16.727Z,31
2022-10-03T07:34:16.747Z,37
2022-10-03T07:35:16.745Z,36
2022-10-03T07:36:16.786Z,36
2022-10-03T07:37:16.749Z,33
2022-10-03T07:38:16.759Z,31
2022-10-03T07:39:16.715Z,30
2022-10-03T07:40:16.778Z,32
2022-10-03T07:44:16.693Z,27
2022-10-03T07:45:16.736Z,24
2022-10-03T07:47:16.668Z,29
2022-10-03T07:48:16.683Z,30
2022-10-03T07:49:18.706Z,29
2022-10-03T07:50:16.716Z,28
2022-10-03T07:51:16.732Z,25
2022-10-03T07:52:16.673Z,28
2022-10-03T07:53:16.751Z,26
2022-10-03T07:54:16.779Z,27
2022-10-03T07:55:16.768Z,25
2022-10-03T07:56:16.765Z,29
2022-10-03T07:57:16.779Z,24
2022-10-03T07:58:16.713Z,24
2022-10-03T07:59:16.787Z,27
2022-10-03T08:00:16.797Z,25
2022-10-03T08:01:16.675Z,26
2022-10-03T08:02:16.745Z,26
2022-10-03T08:03:16.790Z,23
2022-10-03T08:04:16.820Z,22
2022-10-03T08:05:16.729Z,27
2022-10-03T08:06:16.716Z,25
2022-10-03T08:07:16.738Z,21
2022-10-03T08:08:16.742Z,21
2022-10-03T08:09:16.756Z,22
2022-10-03T08:10:16.785Z,24
2022-10-03T08:11:16.706Z,26
2022-10-03T08:12:16.782Z,22
2022-10-03T08:13:16.779Z,24
2022-10-03T08:14:16.688Z,23
2022-10-03T08:15:16.800Z,28
2022-10-03T08:16:16.854Z,21
2022-10-03T08:17:16.700Z,23
2022-10-03T08:18:16.695Z,30
2022-10-03T08:19:16.720Z,24
2022-10-03T08:20:16.833Z,31
2022-10-03T08:21:16.825Z,17
2022-10-03T08:22:16.727Z,22
2022-10-03T08:23:16.735Z,26
2022-10-03T08:24:16.716Z,25
2022-10-03T08:25:16.677Z,29
2022-10-03T08:26:16.756Z,22
2022-10-03T08:27:16.853Z,23
2022-10-03T08:28:16.860Z,20
2022-10-03T08:29:16.904Z,23
2022-10-03T08:30:16.815Z,18
2022-10-03T08:31:16.973Z,27
2022-10-03T08:32:16.783Z,19
2022-10-03T08:33:16.705Z,23
2022-10-03T08:34:16.696Z,21
2022-10-03T08:35:16.813Z,20
2022-10-03T08:36:16.825Z,22
2022-10-03T08:37:16.715Z,17
2022-10-03T08:38:16.685Z,19
2022-10-03T08:39:16.737Z,20
2022-10-03T08:40:16.771Z,19
2022-10-03T08:41:16.775Z,21
2022-10-03T08:42:16.731Z,22
2022-10-03T08:43:16.779Z,23
2022-10-03T08:44:16.780Z,27
2022-10-03T08:45:16.780Z,22
2022-10-03T08:46:16.924Z,20
2022-10-03T08:47:16.780Z,18
2022-10-03T08:48:16.792Z,20
2022-10-03T08:49:16.789Z,19
2022-10-03T08:50:16.727Z,21
2022-10-03T08:51:16.742Z,23
2022-10-03T08:52:16.819Z,27
2022-10-03T08:53:16.675Z,26
2022-10-03T08:54:16.684Z,24
2022-10-03T08:55:16.742Z,20
2022-10-03T08:56:16.696Z,24
2022-10-03T08:57:16.683Z,29
2022-10-03T08:58:16.685Z,22
2022-10-03T08:59:16.758Z,19
2022-10-03T09:00:16.774Z,20
2022-10-03T09:01:16.753Z,26
2022-10-03T09:02:16.843Z,23
2022-10-03T09:03:35.290Z,25
2022-10-03T09:04:16.961Z,21
2022-10-03T09:05:16.730Z,18
2022-10-03T09:06:16.812Z,18
2022-10-03T09:07:18.466Z,23
2022-10-03T09:08:16.805Z,16
2022-10-03T09:09:16.718Z,19
2022-10-03T09:10:16.750Z,17
2022-10-03T09:11:16.732Z,16
2022-10-03T09:12:16.703Z,28
2022-10-03T09:13:16.769Z,24
2022-10-03T09:14:16.734Z,24
2022-10-03T09:15:16.787Z,18
2022-10-03T09:16:18.693Z,20
2022-10-03T09:17:16.780Z,15
2022-10-03T09:18:16.683Z,15
2022-10-03T09:19:16.692Z,13
2022-10-03T09:20:16.722Z,20
2022-10-03T09:21:16.702Z,21
2022-10-03T09:22:16.733Z,19
2022-10-03T09:23:16.711Z,19
2022-10-03T09:24:16.689Z,20
2022-10-03T09:25:16.702Z,18
2022-10-03T09:26:16.687Z,18
2022-10-03T09:27:16.690Z,18
2022-10-03T09:28:16.716Z,15
2022-10-03T09:29:16.696Z,15
2022-10-03T09:30:16.795Z,19
2022-10-03T09:31:16.856Z,17
2022-10-03T09:32:16.693Z,18
2022-10-03T09:33:16.682Z,17
2022-10-03T09:34:16.782Z,23
2022-10-03T09:35:16.706Z,21
2022-10-03T09:36:16.687Z,17
2022-10-03T09:37:16.693Z,15
2022-10-03T09:38:16.737Z,14
2022-10-03T09:39:16.682Z,21
2022-10-03T09:40:17.305Z,18
2022-10-03T09:41:16.685Z,15
2022-10-03T09:42:16.679Z,20
2022-10-03T09:43:16.727Z,16
2022-10-03T09:44:16.701Z,18
2022-10-03T09:45:16.741Z,14
2022-10-03T09:46:16.765Z,14
2022-10-03T09:47:16.703Z,12
2022-10-03T09:48:16.693Z,18
2022-10-03T09:49:16.698Z,12
2022-10-03T09:50:16.752Z,17
2022-10-03T09:51:16.680Z,19
2022-10-03T09:52:16.685Z,15
2022-10-03T09:53:16.793Z,16
2022-10-03T09:54:16.752Z,19
2022-10-03T09:55:16.716Z,17
2022-10-03T09:56:16.711Z,14
2022-10-03T09:57:19.600Z,12
2022-10-03T09:58:16.751Z,19
2022-10-03T09:59:16.742Z,12
2022-10-03T10:00:16.848Z,16
2022-10-03T10:01:16.931Z,20
2022-10-03T10:02:16.744Z,15
2022-10-03T10:03:16.683Z,20
2022-10-03T10:04:24.749Z,16
2022-10-03T10:05:16.705Z,16
2022-10-03T10:06:16.785Z,14
2022-10-03T10:07:16.787Z,20
2022-10-03T10:08:16.794Z,18
2022-10-03T10:09:16.810Z,16
2022-10-03T10:10:16.984Z,11
2022-10-03T10:11:16.727Z,10
2022-10-03T10:12:16.718Z,14
2022-10-03T10:13:16.835Z,15
2022-10-03T10:14:16.752Z,11
2022-10-03T10:15:16.757Z,13
2022-10-03T10:16:16.792Z,12
2022-10-03T10:17:16.813Z,14
2022-10-03T10:18:16.879Z,12
2022-10-03T10:19:16.799Z,17
2022-10-03T10:20:16.853Z,12
2022-10-03T10:21:16.900Z,13
2022-10-03T10:22:16.893Z,11
2022-10-03T10:23:16.987Z,14
2022-10-03T10:24:16.897Z,16
2022-10-03T10:25:16.954Z,15
2022-10-03T10:26:17.017Z,11
2022-10-03T10:27:16.851Z,12
2022-10-03T10:28:16.784Z,15
2022-10-03T10:29:16.699Z,14
2022-10-03T10:30:16.747Z,11
2022-10-03T10:31:16.795Z,16
2022-10-03T10:32:21.302Z,11
2022-10-03T10:33:16.842Z,10
2022-10-03T10:34:16.761Z,11
2022-10-03T10:35:16.771Z,13
2022-10-03T10:36:16.765Z,13
2022-10-03T10:37:16.781Z,11
2022-10-03T10:38:16.755Z,15
2022-10-03T10:39:16.801Z,10
2022-10-03T10:40:16.751Z,13
2022-10-03T10:41:16.804Z,12
2022-10-03T10:42:16.806Z,14
2022-10-03T10:43:16.697Z,8
2022-10-03T10:44:16.691Z,10
2022-10-03T10:45:16.733Z,12
2022-10-03T10:46:16.828Z,13
2022-10-03T10:47:16.739Z,10
2022-10-03T10:48:16.848Z,12
2022-10-03T10:49:16.747Z,11
2022-10-03T10:50:16.780Z,10
2022-10-03T10:51:16.767Z,10
2022-10-03T10:52:16.696Z,13
2022-10-03T10:53:16.706Z,14
2022-10-03T10:54:16.706Z,8
2022-10-03T10:55:16.797Z,9
2022-10-03T10:56:16.827Z,9
2022-10-03T10:57:16.765Z,12
2022-10-03T10:58:16.729Z,10
2022-10-03T10:59:16.713Z,8
2022-10-03T11:00:16.729Z,11
2022-10-03T11:01:16.759Z,8
2022-10-03T11:02:16.699Z,14
2022-10-03T11:03:16.835Z,14
2022-10-03T11:04:16.783Z,14
2022-10-03T11:05:16.717Z,13
2022-10-03T11:06:16.817Z,8
2022-10-03T11:07:16.752Z,12
2022-10-03T11:08:17.241Z,9
2022-10-03T11:09:17.091Z,10
2022-10-03T11:10:16.799Z,12
2022-10-03T11:11:16.748Z,8
2022-10-03T11:12:16.733Z,9
2022-10-03T11:13:16.798Z,11
2022-10-03T11:14:16.805Z,12
2022-10-03T11:15:16.717Z,11
2022-10-03T11:16:16.795Z,15
2022-10-03T11:17:16.699Z,15
2022-10-03T11:18:16.742Z,9
2022-10-03T11:19:16.831Z,12
2022-10-03T11:20:16.881Z,12
2022-10-03T11:21:16.750Z,12
2022-10-03T11:22:16.706Z,13
2022-10-03T11:23:16.756Z,10
2022-10-03T11:24:16.704Z,13
2022-10-03T11:25:16.809Z,10
2022-10-03T11:26:16.696Z,11
2022-10-03T11:27:16.798Z,8
2022-10-03T11:28:19.062Z,5
2022-10-03T11:29:16.811Z,10
2022-10-03T11:30:16.715Z,12
2022-10-03T11:31:16.787Z,8
2022-10-03T11:32:16.722Z,7
2022-10-03T11:33:16.721Z,9
2022-10-03T11:34:16.832Z,7
2022-10-03T11:35:16.858Z,8
2022-10-03T11:36:16.750Z,9
2022-10-03T11:37:16.755Z,7
2022-10-03T11:38:16.698Z,8
2022-10-03T11:39:16.710Z,6
2022-10-03T11:40:16.799Z,6
2022-10-03T11:41:16.800Z,8
2022-10-03T11:42:16.777Z,6
2022-10-03T11:43:16.759Z,7
2022-10-03T11:44:16.806Z,7
2022-10-03T11:45:16.916Z,6
2022-10-03T11:46:16.920Z,6
2022-10-03T11:47:16.737Z,5
2022-10-03T11:48:16.836Z,9
2022-10-03T11:49:16.725Z,6
2022-10-03T11:50:16.888Z,8
2022-10-03T11:51:16.837Z,9
2022-10-03T11:52:16.748Z,6
2022-10-03T11:53:16.710Z,9
2022-10-03T11:54:30.468Z,6
2022-10-03T11:55:16.795Z,6
2022-10-03T11:56:16.777Z,7
2022-10-03T11:57:16.797Z,4
2022-10-03T11:58:16.791Z,4
2022-10-03T11:59:16.791Z,7
2022-10-03T12:00:16.814Z,6
2022-10-03T12:01:16.810Z,7
2022-10-03T12:02:16.850Z,6
2022-10-03T12:03:16.755Z,8
2022-10-03T12:04:16.721Z,8
2022-10-03T12:05:16.730Z,6
2022-10-03T12:06:16.779Z,5
2022-10-03T12:07:17.630Z,5
2022-10-03T12:08:16.743Z,7
2022-10-03T12:09:16.761Z,6
2022-10-03T12:10:16.770Z,5
2022-10-03T12:11:16.774Z,8
2022-10-03T12:12:16.765Z,8
2022-10-03T12:13:16.777Z,7
2022-10-03T12:14:16.785Z,8
2022-10-03T12:15:16.821Z,7
2022-10-03T12:16:16.795Z,9
2022-10-03T12:17:16.798Z,9
2022-10-03T12:18:16.836Z,10
2022-10-03T12:19:16.925Z,7
2022-10-03T12:20:16.974Z,8
2022-10-03T12:21:21.616Z,8
2022-10-03T12:22:16.840Z,8
2022-10-03T12:23:16.738Z,8
2022-10-03T12:24:16.758Z,6
2022-10-03T12:25:16.865Z,7
2022-10-03T12:26:16.759Z,11
2022-10-03T12:27:16.848Z,11
2022-10-03T12:28:16.797Z,6
2022-10-03T12:29:16.758Z,8
2022-10-03T12:30:16.724Z,6
2022-10-03T12:31:19.107Z,10
2022-10-03T12:32:16.794Z,6
2022-10-03T12:33:16.697Z,11
2022-10-03T12:34:16.817Z,6
2022-10-03T12:35:16.722Z,8
2022-10-03T12:36:16.833Z,9
2022-10-03T12:37:16.929Z,7
2022-10-03T12:38:16.739Z,7
2022-10-03T12:39:16.743Z,7
2022-10-03T12:40:16.952Z,7
2022-10-03T12:41:16.753Z,11
2022-10-03T12:42:16.767Z,8
2022-10-03T12:43:16.753Z,6
2022-10-03T12:44:16.742Z,7
2022-10-03T12:45:16.777Z,6
2022-10-03T12:46:16.868Z,7
2022-10-03T12:47:24.350Z,8
2022-10-03T12:48:16.792Z,7
2022-10-03T12:49:16.817Z,6
2022-10-03T12:50:16.819Z,6
2022-10-03T12:51:16.812Z,6
2022-10-03T12:52:16.814Z,13
2022-10-03T12:53:16.714Z,14
2022-10-03T12:54:16.761Z,14
2022-10-03T12:55:16.794Z,14
2022-10-03T12:56:16.743Z,9
2022-10-03T12:57:16.825Z,11
2022-10-03T12:58:16.779Z,5
2022-10-03T12:59:16.774Z,12
2022-10-03T13:00:16.805Z,13
2022-10-03T13:01:16.897Z,7
2022-10-03T13:02:16.897Z,7
2022-10-03T13:03:16.795Z,7
2022-10-03T13:04:16.732Z,8
2022-10-03T13:05:16.737Z,6
2022-10-03T13:06:16.827Z,9
2022-10-03T13:07:16.818Z,9
2022-10-03T13:08:16.714Z,6
2022-10-03T13:09:16.734Z,9
2022-10-03T13:10:16.762Z,6
2022-10-03T13:11:16.742Z,8
2022-10-03T13:12:16.737Z,5
2022-10-03T13:13:16.714Z,6
2022-10-03T13:14:16.872Z,6
2022-10-03T13:15:16.872Z,6
2022-10-03T13:16:16.886Z,7
2022-10-03T13:17:16.774Z,6
2022-10-03T13:18:16.717Z,6
2022-10-03T13:19:16.797Z,5
2022-10-03T13:20:16.851Z,7
2022-10-03T13:21:43.805Z,8
2022-10-03T13:22:16.820Z,8
2022-10-03T13:23:16.749Z,6
2022-10-03T13:24:16.716Z,7
2022-10-03T13:25:16.738Z,8
2022-10-03T13:26:18.490Z,5
2022-10-03T13:27:16.714Z,6
2022-10-03T13:28:16.758Z,8
2022-10-03T13:29:16.716Z,7
2022-10-03T13:30:16.786Z,8
2022-10-03T13:31:16.777Z,8
2022-10-03T13:32:16.786Z,7
2022-10-03T13:33:16.782Z,6
2022-10-03T13:34:16.716Z,4
2022-10-03T13:35:16.801Z,6
2022-10-03T13:36:16.813Z,8
2022-10-03T13:37:16.817Z,6
2022-10-03T13:38:16.814Z,6
2022-10-03T13:39:16.718Z,5
2022-10-03T13:40:16.788Z,6
2022-10-03T13:41:16.720Z,6
2022-10-03T13:42:16.724Z,7
2022-10-03T13:43:16.848Z,7
2022-10-03T13:44:16.852Z,5
2022-10-03T13:45:16.785Z,7
2022-10-03T13:46:16.996Z,6
2022-10-03T13:47:16.767Z,6
2022-10-03T13:48:16.727Z,6
2022-10-03T13:49:16.781Z,7
2022-10-03T13:50:16.806Z,11
2022-10-03T13:51:16.820Z,7
2022-10-03T13:52:16.793Z,5
2022-10-03T13:53:16.813Z,5
2022-10-03T13:54:16.767Z,6
2022-10-03T13:55:16.741Z,6
2022-10-03T13:56:16.824Z,5
2022-10-03T13:57:16.727Z,6
2022-10-03T13:58:16.718Z,5
2022-10-03T13:59:16.723Z,6
2022-10-03T14:00:16.771Z,5
2022-10-03T14:01:16.893Z,8
2022-10-03T14:02:16.887Z,8
2022-10-03T14:03:16.724Z,8
2022-10-03T14:04:16.773Z,9
2022-10-03T14:05:16.743Z,7
2022-10-03T14:06:16.786Z,5
2022-10-03T14:07:16.797Z,8
2022-10-03T14:08:16.800Z,9
2022-10-03T14:09:16.815Z,5
2022-10-03T14:10:16.833Z,6
2022-10-03T14:11:16.826Z,8
2022-10-03T14:12:24.774Z,6
2022-10-03T14:13:16.840Z,4
2022-10-03T14:14:16.724Z,5
2022-10-03T14:15:16.760Z,6
2022-10-03T14:16:16.972Z,7
2022-10-03T14:17:16.855Z,8
2022-10-03T14:18:16.779Z,8
2022-10-03T14:19:16.766Z,8
2022-10-03T14:20:16.813Z,9
2022-10-03T14:21:16.782Z,7
2022-10-03T14:22:16.755Z,6
2022-10-03T14:23:16.733Z,11
2022-10-03T14:24:16.772Z,8
2022-10-03T14:25:16.790Z,6